Time;durP1;ratioP1;P1;durP2;ratioP2;P2;SDS_P1;SDS_P2;PMS_P1;PMS_P2;Temp;Humidity;BMP_temperature;BMP_pressure;BME280_temperature;BME280_humidity;BME280_pressure;Samples;Min_cycle;Max_cycle;Signal;HPM_P1;HPM_P2
2021/07/30 00:01:07;;;;;;;4.67;2.93;;;19.50;91.40;;;;;;6136063;23;20434;-89
2021/07/30 00:03:36;;;;;;;2.80;2.47;;;19.60;91.80;;;;;;6148873;23;20460;-90
2021/07/30 00:06:21;;;;;;;4.00;2.63;;;19.50;91.80;;;;;;6129673;23;20465;-89
2021/07/30 00:08:48;;;;;;;3.50;2.80;;;19.40;92.00;;;;;;6117603;23;20424;-88
2021/07/30 00:11:15;;;;;;;3.90;2.73;;;19.50;92.20;;;;;;6132465;23;20380;-89
2021/07/30 00:13:41;;;;;;;3.40;3.10;;;19.50;91.90;;;;;;6139364;23;20475;-90
2021/07/30 00:16:08;;;;;;;5.87;2.83;;;19.40;92.10;;;;;;6132451;23;20443;-88
2021/07/30 00:18:35;;;;;;;5.27;3.20;;;19.40;92.30;;;;;;6129898;23;20448;-88
2021/07/30 00:21:02;;;;;;;4.00;2.70;;;19.50;92.30;;;;;;6131081;23;20847;-88
2021/07/30 00:23:29;;;;;;;3.23;2.57;;;19.30;92.70;;;;;;6104528;23;20450;-89
2021/07/30 00:26:01;;;;;;;5.57;2.83;;;19.30;93.00;;;;;;6103859;23;20530;-89
2021/07/30 00:28:29;;;;;;;5.10;2.50;;;19.30;93.10;;;;;;6104749;23;20446;-88
2021/07/30 00:30:55;;;;;;;5.10;3.10;;;19.30;93.00;;;;;;6105588;23;20416;-88
2021/07/30 00:33:25;;;;;;;5.77;2.90;;;19.20;93.40;;;;;;6106282;23;20419;-89
2021/07/30 00:35:52;;;;;;;2.57;2.20;;;19.30;93.30;;;;;;6129242;23;20425;-90
2021/07/30 00:38:19;;;;;;;3.03;2.80;;;19.30;93.40;;;;;;6103827;23;20510;-90
2021/07/30 00:40:46;;;;;;;5.87;2.80;;;19.30;93.50;;;;;;6115339;23;20416;-91
2021/07/30 00:43:16;;;;;;;5.63;3.13;;;19.30;93.50;;;;;;6146929;23;20412;-89
2021/07/30 00:45:44;;;;;;;5.87;3.00;;;19.40;93.30;;;;;;6118822;23;20422;-87
2021/07/30 00:48:13;;;;;;;4.07;3.00;;;19.30;93.50;;;;;;6128047;23;20782;-86
2021/07/30 00:50:42;;;;;;;4.17;3.37;;;19.30;93.80;;;;;;6105974;23;20415;-88
2021/07/30 00:53:10;;;;;;;4.93;2.63;;;19.30;93.60;;;;;;6105722;23;20416;-88
2021/07/30 00:55:38;;;;;;;3.40;2.63;;;19.30;93.70;;;;;;6127721;23;20450;-87
2021/07/30 00:58:06;;;;;;;3.33;3.03;;;19.10;94.00;;;;;;6133722;23;20466;-88
2021/07/30 01:00:33;;;;;;;4.73;3.07;;;19.10;94.20;;;;;;6108821;23;20447;-88
2021/07/30 01:03:02;;;;;;;3.20;2.83;;;19.10;94.30;;;;;;6132902;23;20392;-89
2021/07/30 01:05:38;;;;;;;2.80;2.37;;;19.10;94.30;;;;;;6135403;23;20494;-88
2021/07/30 01:08:05;;;;;;;3.77;2.90;;;19.10;94.30;;;;;;6129429;23;20502;-87
2021/07/30 01:10:32;;;;;;;3.63;2.63;;;19.00;94.20;;;;;;6131707;23;20419;-89
2021/07/30 01:12:59;;;;;;;5.03;2.70;;;19.00;94.50;;;;;;6104242;23;20808;-88
2021/07/30 01:15:26;;;;;;;5.20;3.53;;;19.00;94.50;;;;;;6103864;23;20443;-88
2021/07/30 01:17:53;;;;;;;4.73;3.47;;;19.00;94.70;;;;;;6127375;23;20448;-87
2021/07/30 01:20:25;;;;;;;3.10;2.73;;;19.10;94.40;;;;;;6131761;23;20563;-87
2021/07/30 01:22:59;;;;;;;2.70;2.50;;;19.00;94.60;;;;;;6127870;23;20871;-87
2021/07/30 01:25:28;;;;;;;3.70;2.90;;;19.00;94.30;;;;;;6105394;23;20418;-88
2021/07/30 01:27:56;;;;;;;4.20;2.77;;;19.00;94.30;;;;;;6130035;23;20408;-88
2021/07/30 01:30:25;;;;;;;4.07;2.43;;;18.80;94.50;;;;;;6133831;23;20442;-87
2021/07/30 01:32:53;;;;;;;5.20;2.67;;;18.70;95.00;;;;;;6105202;23;20490;-87
2021/07/30 01:35:20;;;;;;;5.63;2.80;;;18.50;95.20;;;;;;6130983;23;20435;-89
2021/07/30 01:37:47;;;;;;;3.00;2.60;;;18.50;95.50;;;;;;6104506;23;20463;-89
2021/07/30 01:40:15;;;;;;;3.13;2.30;;;18.80;95.80;;;;;;6128972;23;20435;-88
2021/07/30 01:42:42;;;;;;;9.73;3.00;;;18.90;95.50;;;;;;6129132;23;20450;-87
2021/07/30 01:45:10;;;;;;;3.20;3.00;;;18.90;95.80;;;;;;6106010;23;20426;-88
2021/07/30 01:47:37;;;;;;;3.43;2.87;;;18.90;96.10;;;;;;6104811;23;20415;-88
2021/07/30 01:50:06;;;;;;;3.53;3.23;;;18.70;96.60;;;;;;6103964;23;20659;-88
2021/07/30 01:52:32;;;;;;;4.63;3.23;;;18.80;96.90;;;;;;6106756;23;20439;-89
2021/07/30 01:55:00;;;;;;;4.80;3.17;;;18.80;97.40;;;;;;6106212;23;20411;-89
2021/07/30 01:57:27;;;;;;;3.30;2.93;;;18.90;97.60;;;;;;6105841;23;20440;-88
2021/07/30 01:59:54;;;;;;;5.60;3.30;;;19.00;97.90;;;;;;6132607;23;20934;-87
2021/07/30 02:02:21;;;;;;;6.23;3.47;;;18.90;97.90;;;;;;6104615;23;20408;-88
2021/07/30 02:04:48;;;;;;;3.93;3.53;;;19.00;97.80;;;;;;6131360;23;20415;-88
2021/07/30 02:07:18;;;;;;;4.00;3.30;;;19.10;97.80;;;;;;6133340;23;20442;-88
2021/07/30 02:09:46;;;;;;;3.77;3.00;;;18.90;97.80;;;;;;6106911;23;20460;-87
2021/07/30 02:12:15;;;;;;;4.87;3.20;;;18.80;98.10;;;;;;6107054;23;20966;-88
2021/07/30 02:14:42;;;;;;;3.17;2.87;;;18.90;97.60;;;;;;6106214;23;20440;-88
2021/07/30 02:17:09;;;;;;;5.20;3.00;;;18.70;97.70;;;;;;6104087;23;20431;-86
2021/07/30 02:19:37;;;;;;;5.57;3.07;;;18.60;98.10;;;;;;6131001;23;20518;-88
2021/07/30 02:22:04;;;;;;;5.60;2.83;;;18.70;97.70;;;;;;6105243;23;20411;-87
2021/07/30 02:24:31;;;;;;;3.17;2.63;;;19.00;97.80;;;;;;6104447;23;20410;-88
2021/07/30 02:26:58;;;;;;;6.63;3.27;;;18.80;97.60;;;;;;6131030;23;20412;-88
2021/07/30 02:29:24;;;;;;;3.23;2.60;;;19.00;97.80;;;;;;6131049;23;20495;-87
2021/07/30 02:31:52;;;;;;;4.90;4.43;;;19.00;97.90;;;;;;6107737;23;20426;-88
2021/07/30 02:34:19;;;;;;;3.77;3.20;;;19.00;98.10;;;;;;6109177;23;20805;-88
2021/07/30 02:36:46;;;;;;;4.90;3.10;;;18.80;98.40;;;;;;6110130;23;20765;-88
2021/07/30 02:39:13;;;;;;;3.57;3.10;;;18.60;98.70;;;;;;6134415;23;21021;-88
2021/07/30 02:41:41;;;;;;;4.00;3.33;;;18.60;98.80;;;;;;6120882;23;20430;-89
2021/07/30 02:44:08;;;;;;;3.57;3.07;;;18.60;98.90;;;;;;6153156;23;20487;-90
2021/07/30 02:46:37;;;;;;;4.67;3.43;;;18.40;99.30;;;;;;6123828;23;20457;-90
2021/07/30 02:49:04;;;;;;;3.47;3.00;;;18.20;99.70;;;;;;6125367;23;20424;-90
2021/07/30 02:51:32;;;;;;;3.57;3.27;;;18.40;99.90;;;;;;6124764;23;20397;-93
2021/07/30 02:53:59;;;;;;;4.57;3.50;;;18.50;99.90;;;;;;6124501;23;20427;-89
2021/07/30 02:56:29;;;;;;;4.97;3.53;;;18.40;99.90;;;;;;6121593;23;20397;-92
2021/07/30 02:58:56;;;;;;;5.20;3.57;;;18.20;99.90;;;;;;6120307;23;20444;-89
2021/07/30 03:01:23;;;;;;;4.10;3.63;;;18.10;99.90;;;;;;6103671;23;20409;-88
2021/07/30 03:04:04;;;;;;;7.47;3.77;;;18.10;99.90;;;;;;6089183;23;20467;-88
2021/07/30 03:06:31;;;;;;;4.97;3.50;;;18.00;99.90;;;;;;6115586;23;20401;-88
2021/07/30 03:08:59;;;;;;;4.50;3.90;;;17.90;99.90;;;;;;6123176;23;20472;-89
2021/07/30 03:11:26;;;;;;;4.27;3.40;;;17.90;99.90;;;;;;6125248;23;20489;-90
2021/07/30 03:13:53;;;;;;;4.73;3.67;;;17.90;99.90;;;;;;6123744;23;20405;-89
2021/07/30 03:16:20;;;;;;;4.43;3.10;;;18.00;99.90;;;;;;6121317;23;20432;-87
2021/07/30 03:18:47;;;;;;;4.90;3.70;;;18.10;99.90;;;;;;6119654;23;20448;-87
2021/07/30 03:21:14;;;;;;;4.20;3.90;;;18.00;99.90;;;;;;6114589;23;20522;-89
2021/07/30 03:23:40;;;;;;;5.57;3.40;;;18.10;99.90;;;;;;6112442;23;20472;-90
2021/07/30 03:26:07;;;;;;;3.90;3.47;;;18.10;99.90;;;;;;6119611;23;20431;-87
2021/07/30 03:28:34;;;;;;;6.63;3.90;;;17.90;99.90;;;;;;6120806;23;20425;-89
2021/07/30 03:31:01;;;;;;;5.40;4.03;;;18.00;99.90;;;;;;6119563;23;20531;-88
2021/07/30 03:33:28;;;;;;;4.07;3.70;;;18.00;99.90;;;;;;6119717;23;20413;-88
2021/07/30 03:35:55;;;;;;;4.23;3.83;;;17.90;99.90;;;;;;6114547;23;20495;-88
2021/07/30 03:38:23;;;;;;;4.00;3.57;;;17.90;99.90;;;;;;6116155;23;20756;-87
2021/07/30 03:40:50;;;;;;;4.50;3.47;;;17.80;99.90;;;;;;6109803;23;20704;-87
2021/07/30 03:43:17;;;;;;;4.33;3.60;;;17.90;99.90;;;;;;6104941;23;20467;-87
2021/07/30 03:45:43;;;;;;;4.40;4.03;;;17.90;99.90;;;;;;6101974;23;20418;-87
2021/07/30 03:48:12;;;;;;;5.03;3.90;;;17.80;99.90;;;;;;6107427;23;20439;-87
2021/07/30 03:50:40;;;;;;;4.40;3.40;;;17.70;99.90;;;;;;6090880;23;20452;-91
2021/07/30 03:53:07;;;;;;;5.37;3.70;;;17.60;99.90;;;;;;6091533;23;20420;-88
2021/07/30 03:55:34;;;;;;;5.03;3.40;;;17.70;99.90;;;;;;6078955;23;20408;-87
2021/07/30 03:58:01;;;;;;;5.47;4.00;;;17.90;99.90;;;;;;6105594;23;20483;-87
2021/07/30 04:00:28;;;;;;;5.13;4.27;;;17.80;99.90;;;;;;6106879;23;20421;-88
2021/07/30 04:02:55;;;;;;;4.33;3.93;;;17.60;99.90;;;;;;6078886;23;20442;-88
2021/07/30 04:05:22;;;;;;;4.80;3.87;;;17.50;99.90;;;;;;6111191;23;20412;-90
2021/07/30 04:07:49;;;;;;;5.63;3.97;;;17.40;99.90;;;;;;6090553;23;20420;-89
2021/07/30 04:10:16;;;;;;;4.83;4.00;;;17.50;99.90;;;;;;6079946;23;20819;-88
2021/07/30 04:12:43;;;;;;;5.20;4.70;;;17.40;99.90;;;;;;6079595;23;20789;-87
2021/07/30 04:15:10;;;;;;;4.33;3.93;;;17.20;99.90;;;;;;6077461;23;20413;-88
2021/07/30 04:17:37;;;;;;;4.90;4.33;;;17.40;99.90;;;;;;6078860;23;20488;-88
2021/07/30 04:20:07;;;;;;;4.40;3.83;;;17.40;99.90;;;;;;6079970;23;20483;-89
2021/07/30 04:22:34;;;;;;;6.97;4.90;;;17.40;99.90;;;;;;6104713;23;20490;-89
2021/07/30 04:25:01;;;;;;;4.60;4.13;;;17.30;99.90;;;;;;6105514;23;20417;-90
2021/07/30 04:27:28;;;;;;;7.17;4.40;;;17.30;99.90;;;;;;6082456;23;20427;-88
2021/07/30 04:29:55;;;;;;;5.60;4.00;;;17.50;99.90;;;;;;6079776;23;21073;-91
2021/07/30 04:32:25;;;;;;;4.53;4.07;;;17.40;99.90;;;;;;6109646;23;20416;-89
2021/07/30 04:34:54;;;;;;;4.80;3.97;;;17.40;99.90;;;;;;6118524;23;20499;-92
2021/07/30 04:37:21;;;;;;;5.37;3.60;;;17.20;99.90;;;;;;6098350;23;20411;-89
2021/07/30 04:39:48;;;;;;;3.80;3.33;;;17.30;99.90;;;;;;6122825;23;20456;-88
2021/07/30 04:42:14;;;;;;;4.30;3.90;;;17.30;99.90;;;;;;6091628;23;20495;-88
2021/07/30 04:44:41;;;;;;;4.70;3.53;;;17.30;99.90;;;;;;6095257;23;20456;-89
2021/07/30 04:47:08;;;;;;;6.67;4.70;;;17.40;99.90;;;;;;6097750;23;20428;-88
2021/07/30 04:49:38;;;;;;;5.07;4.57;;;17.50;99.90;;;;;;6098103;23;20436;-90
2021/07/30 04:52:05;;;;;;;5.00;4.40;;;17.50;99.90;;;;;;6098510;23;20397;-89
2021/07/30 04:54:32;;;;;;;6.10;4.33;;;17.40;99.90;;;;;;6120501;23;20417;-87
2021/07/30 04:56:59;;;;;;;5.40;4.90;;;17.30;99.90;;;;;;6072397;23;20496;-87
2021/07/30 04:59:26;;;;;;;4.70;4.20;;;17.30;99.90;;;;;;6106900;23;20441;-87
2021/07/30 05:01:53;;;;;;;6.07;4.87;;;17.10;99.90;;;;;;6104106;23;20455;-88
2021/07/30 05:04:36;;;;;;;4.03;3.60;;;17.20;99.90;;;;;;6083135;23;20893;-88
2021/07/30 05:07:28;;;;;;;4.57;4.10;;;17.30;99.90;;;;;;6025971;23;20608;-87
2021/07/30 05:10:38;;;;;;;5.67;4.43;;;17.40;99.90;;;;;;6034489;23;20432;-87
2021/07/30 05:13:34;;;;;;;6.50;4.60;;;17.40;99.90;;;;;;6051695;23;20397;-86
2021/07/30 05:16:13;;;;;;;5.30;4.83;;;17.40;99.90;;;;;;6097257;23;20411;-90
2021/07/30 05:21:33;;;;;;;4.93;3.87;;;17.60;99.90;;;;;;6118843;23;20479;-85
2021/07/30 05:24:00;;;;;;;7.23;3.93;;;17.70;99.90;;;;;;6086325;23;20415;-86
2021/07/30 05:26:58;;;;;;;4.70;3.73;;;17.60;99.90;;;;;;6108351;23;20423;-88
2021/07/30 05:29:46;;;;;;;6.90;4.37;;;17.60;99.90;;;;;;6094179;23;20460;-86
2021/07/30 05:33:01;;;;;;;4.70;4.10;;;17.30;99.90;;;;;;6098353;23;20404;-88
2021/07/30 05:35:55;;;;;;;6.00;4.60;;;17.40;99.90;;;;;;6120545;23;20467;-86
2021/07/30 05:38:50;;;;;;;4.43;4.07;;;17.20;99.90;;;;;;6094803;23;20455;-88
2021/07/30 05:41:24;;;;;;;5.20;4.17;;;17.20;99.90;;;;;;6091335;23;20408;-85
2021/07/30 05:47:13;;;;;;;5.10;4.33;;;17.70;99.90;;;;;;6160730;23;20493;-84
2021/07/30 05:50:02;;;;;;;8.80;4.53;;;17.40;99.90;;;;;;6141692;23;20463;-84
2021/07/30 05:56:35;;;;;;;4.73;4.33;;;17.70;99.90;;;;;;6078254;23;20453;-86
2021/07/30 06:02:59;;;;;;;5.67;5.17;;;17.70;99.90;;;;;;6150921;23;20388;-87
2021/07/30 06:06:19;;;;;;;6.60;3.50;;;17.70;99.90;;;;;;6078978;23;20404;-87
2021/07/30 06:09:37;;;;;;;4.47;4.03;;;17.70;99.90;;;;;;6082717;23;20428;-87
2021/07/30 06:12:38;;;;;;;5.20;3.70;;;17.80;99.90;;;;;;6109092;23;20898;-88
2021/07/30 06:15:11;;;;;;;4.37;4.00;;;17.90;99.90;;;;;;6110276;23;20419;-86
2021/07/30 06:17:55;;;;;;;12.03;4.10;;;18.00;99.90;;;;;;6112048;23;20435;-87
2021/07/30 06:20:27;;;;;;;5.40;4.03;;;18.20;99.80;;;;;;6131636;23;20454;-86
2021/07/30 06:23:01;;;;;;;5.93;3.83;;;18.30;99.50;;;;;;6147953;23;20418;-88
2021/07/30 06:25:59;;;;;;;4.67;4.10;;;18.40;98.90;;;;;;6145766;23;20399;-89
2021/07/30 06:29:08;;;;;;;7.40;3.90;;;18.50;98.90;;;;;;6137376;23;20439;-87
2021/07/30 06:32:23;;;;;;;4.73;3.80;;;18.50;99.00;;;;;;6135152;23;20414;-88
2021/07/30 06:34:57;;;;;;;4.40;3.93;;;18.70;98.80;;;;;;6112268;23;20450;-88
2021/07/30 06:38:00;;;;;;;6.40;3.83;;;18.60;98.60;;;;;;6110222;23;20535;-86
2021/07/30 06:41:04;;;;;;;6.67;3.53;;;18.70;98.50;;;;;;6132934;23;20447;-87
2021/07/30 06:43:37;;;;;;;10.43;3.87;;;18.90;98.60;;;;;;6162022;23;20442;-86
2021/07/30 06:46:16;;;;;;;3.50;3.20;;;19.00;98.10;;;;;;6171313;23;20485;-85
2021/07/30 06:49:13;;;;;;;4.70;3.80;;;19.30;97.90;;;;;;6147835;23;20414;-88
2021/07/30 06:52:01;;;;;;;6.23;3.73;;;19.40;97.20;;;;;;6170594;23;20421;-87
2021/07/30 06:54:43;;;;;;;4.57;3.43;;;19.40;97.00;;;;;;6146271;23;20458;-88
2021/07/30 07:00:30;;;;;;;5.50;4.00;;;19.50;97.20;;;;;;6169483;23;20454;-88
2021/07/30 07:03:36;;;;;;;3.83;3.30;;;19.50;97.00;;;;;;6187693;23;20419;-87
2021/07/30 07:06:36;;;;;;;4.67;3.83;;;19.70;97.00;;;;;;6137983;23;20460;-86
2021/07/30 07:10:08;;;;;;;4.20;3.80;;;19.70;97.20;;;;;;6174504;23;20455;-89
2021/07/30 07:13:51;;;;;;;4.83;3.20;;;19.70;97.30;;;;;;6193827;23;20473;-88
2021/07/30 07:16:28;;;;;;;6.50;3.87;;;20.00;97.00;;;;;;6175401;23;20403;-88
2021/07/30 07:19:52;;;;;;;;;;;;;;;;;;;;;
2021/07/30 07:23:20;;;;;;;3.87;3.23;;;20.00;96.50;;;;;;6173100;23;20496;-89
2021/07/30 07:26:07;;;;;;;4.43;3.60;;;20.10;96.70;;;;;;6176280;23;20455;-86
2021/07/30 07:33:09;;;;;;;12.90;5.80;;;20.80;95.10;;;;;;6140491;23;20411;-87
2021/07/30 07:35:41;;;;;;;7.30;3.57;;;21.00;94.60;;;;;;6171488;23;20419;-88
2021/07/30 07:38:35;;;;;;;4.20;3.63;;;21.10;94.80;;;;;;6203528;23;20414;-88
2021/07/30 07:41:07;;;;;;;4.77;3.30;;;21.40;93.70;;;;;;6205108;23;20444;-88
2021/07/30 07:44:01;;;;;;;3.90;3.00;;;21.40;93.90;;;;;;6203283;23;20462;-89
2021/07/30 07:46:55;;;;;;;3.13;2.40;;;21.60;93.50;;;;;;6205801;23;20414;-91
2021/07/30 07:52:42;;;;;;;3.73;3.07;;;22.60;91.00;;;;;;6181642;23;20481;-88
2021/07/30 07:55:19;;;;;;;4.87;3.50;;;22.90;90.30;;;;;;6156972;23;20395;-86
2021/07/30 07:57:57;;;;;;;4.57;2.70;;;23.40;89.80;;;;;;6150582;23;20465;-86
2021/07/30 08:00:43;;;;;;;4.40;2.97;;;23.60;86.70;;;;;;6157124;23;20446;-89
2021/07/30 08:03:28;;;;;;;3.43;2.40;;;23.60;86.30;;;;;;6157391;23;20426;-88
2021/07/30 08:06:07;;;;;;;3.07;2.30;;;23.70;87.10;;;;;;6154524;23;20422;-88
2021/07/30 08:08:43;;;;;;;3.33;2.57;;;24.00;86.00;;;;;;6149363;23;20440;-87
2021/07/30 08:11:24;;;;;;;3.73;2.17;;;24.70;81.10;;;;;;6146529;23;20399;-87
2021/07/30 08:14:10;;;;;;;3.03;2.27;;;25.20;77.50;;;;;;6145033;23;20411;-87
2021/07/30 08:16:40;;;;;;;4.23;2.40;;;25.30;74.30;;;;;;6139453;23;20422;-87
2021/07/30 08:19:26;;;;;;;3.53;2.10;;;26.20;71.90;;;;;;6143720;23;20455;-87
2021/07/30 08:25:33;;;;;;;3.77;2.80;;;29.50;56.60;;;;;;6164335;23;20411;-88
2021/07/30 08:28:28;;;;;;;3.33;2.33;;;29.50;55.30;;;;;;6148357;23;20415;-88
2021/07/30 08:31:26;;;;;;;3.10;2.10;;;30.90;53.80;;;;;;6137887;23;20921;-85
2021/07/30 08:35:03;;;;;;;2.70;1.83;;;32.70;48.20;;;;;;6137529;23;20739;-86
2021/07/30 08:37:46;;;;;;;2.10;1.83;;;33.70;45.70;;;;;;6017689;23;20502;-87
2021/07/30 08:40:20;;;;;;;3.10;2.20;;;33.80;43.80;;;;;;6157976;23;20505;-88
2021/07/30 08:46:58;;;;;;;3.70;2.50;;;34.10;42.40;;;;;;5959778;24;20428;-87
2021/07/30 08:49:35;;;;;;;2.87;2.10;;;32.80;43.60;;;;;;5998697;23;20581;-87
2021/07/30 08:59:41;;;;;;;2.43;2.23;;;34.00;40.60;;;;;;5789804;24;20464;-86
2021/07/30 09:06:30;;;;;;;2.20;2.00;;;33.50;40.90;;;;;;5901603;24;20385;-87
2021/07/30 09:09:08;;;;;;;3.07;2.47;;;32.30;41.90;;;;;;5988738;24;20519;-87
2021/07/30 09:11:43;;;;;;;3.50;2.50;;;30.60;43.90;;;;;;5966875;24;20427;-86
2021/07/30 09:14:41;;;;;;;3.70;2.60;;;29.40;46.20;;;;;;5963460;24;20554;-89
2021/07/30 09:17:21;;;;;;;;;;;;;;;;;;;;;
2021/07/30 09:20:42;;;;;;;2.50;2.30;;;31.30;44.50;;;;;;6006492;23;20529;-87
2021/07/30 09:23:22;;;;;;;6.87;2.40;;;31.40;43.80;;;;;;6024903;23;20778;-89
2021/07/30 09:26:12;;;;;;;2.50;2.20;;;31.00;43.90;;;;;;6046685;23;20410;-87
2021/07/30 09:29:34;;;;;;;2.47;2.27;;;30.60;45.10;;;;;;6082696;23;20418;-87
2021/07/30 09:32:16;;;;;;;3.70;2.60;;;30.20;45.30;;;;;;6104252;23;20422;-87
2021/07/30 09:34:57;;;;;;;2.67;2.43;;;29.20;47.40;;;;;;6136319;23;20438;-85
2021/07/30 09:37:36;;;;;;;2.83;2.50;;;29.20;47.50;;;;;;6136925;23;20406;-86
2021/07/30 09:40:23;;;;;;;3.70;2.43;;;29.10;47.80;;;;;;6151462;23;20442;-88
2021/07/30 09:43:43;;;;;;;3.40;2.33;;;29.60;46.70;;;;;;6137728;23;20423;-89
2021/07/30 09:46:18;;;;;;;2.63;2.43;;;29.70;46.40;;;;;;6134246;23;20414;-89
2021/07/30 09:49:07;;;;;;;2.70;2.50;;;29.50;46.80;;;;;;6156929;23;20426;-88
2021/07/30 09:51:36;;;;;;;2.60;2.40;;;29.70;47.10;;;;;;6181332;23;20376;-88
2021/07/30 09:54:24;;;;;;;4.83;2.63;;;29.60;46.90;;;;;;6177644;23;20445;-87
2021/07/30 09:57:02;;;;;;;2.57;2.20;;;29.50;46.90;;;;;;6146711;23;20409;-87
2021/07/30 09:59:46;;;;;;;2.67;2.47;;;29.80;46.70;;;;;;6144899;23;20542;-87
2021/07/30 10:02:54;;;;;;;3.57;2.60;;;29.70;46.70;;;;;;6148718;23;20421;-85
2021/07/30 10:05:37;;;;;;;2.43;2.27;;;28.80;48.40;;;;;;6170464;23;20513;-86
2021/07/30 10:11:25;;;;;;;3.90;2.50;;;27.30;51.30;;;;;;6152932;23;20399;-87
2021/07/30 10:14:02;;;;;;;3.00;2.50;;;27.00;52.20;;;;;;6143951;23;20421;-86
2021/07/30 10:20:27;;;;;;;2.83;2.63;;;26.60;53.20;;;;;;6121985;23;20443;-88
2021/07/30 10:23:30;;;;;;;2.93;2.43;;;26.70;52.90;;;;;;6144003;23;20422;-87
2021/07/30 10:29:43;;;;;;;4.33;2.90;;;27.80;52.50;;;;;;6147132;23;20430;-86
2021/07/30 10:32:50;;;;;;;2.47;2.27;;;29.10;49.40;;;;;;6139153;23;20853;-87
2021/07/30 10:35:37;;;;;;;5.53;2.30;;;29.30;48.80;;;;;;6139678;23;20989;-86
2021/07/30 10:42:05;;;;;;;3.03;2.73;;;29.20;49.10;;;;;;6034920;23;20454;-87
2021/07/30 10:44:35;;;;;;;3.30;2.77;;;28.40;49.90;;;;;;6023809;23;20423;-85
2021/07/30 10:47:29;;;;;;;3.83;2.27;;;28.30;49.80;;;;;;6031816;23;21101;-86
2021/07/30 10:50:06;;;;;;;3.10;2.83;;;29.20;48.30;;;;;;6045549;23;20438;-85
2021/07/30 10:52:44;;;;;;;3.20;2.80;;;29.40;48.00;;;;;;6042980;23;20414;-87
2021/07/30 10:55:41;;;;;;;3.53;2.60;;;29.50;47.50;;;;;;6042224;23;20434;-85
2021/07/30 10:58:09;;;;;;;3.60;3.40;;;28.90;47.70;;;;;;6041724;23;20421;-87
2021/07/30 11:00:59;;;;;;;2.30;2.20;;;28.40;49.00;;;;;;6018207;23;20446;-86
2021/07/30 11:19:35;;;;;;;3.13;2.80;;;30.10;45.20;;;;;;6015950;23;20552;-89
2021/07/30 12:04:18;;;;;;;3.97;2.70;;;29.90;46.10;;;;;;6138401;23;20527;-90
2021/07/30 12:07:36;;;;;;;4.93;2.83;;;30.00;46.00;;;;;;6115593;23;20881;-90
2021/07/30 12:10:18;;;;;;;3.07;2.20;;;29.70;46.60;;;;;;6052653;23;20528;-89
2021/07/30 12:13:40;;;;;;;2.70;2.50;;;29.70;45.00;;;;;;6115370;23;20432;-89
2021/07/30 12:20:34;;;;;;;3.17;2.97;;;30.40;43.50;;;;;;6002871;24;20479;-90
2021/07/30 12:23:48;;;;;;;2.70;2.50;;;30.50;44.10;;;;;;6025135;23;20434;-87
2021/07/30 12:26:35;;;;;;;8.10;4.03;;;30.00;45.30;;;;;;6049669;23;20417;-87
2021/07/30 12:29:08;;;;;;;3.30;3.10;;;29.60;46.50;;;;;;6025598;23;20431;-86
2021/07/30 13:06:10;;;;;;;3.03;2.83;;;29.50;47.20;;;;;;6181251;23;20395;-91
2021/07/30 13:08:46;;;;;;;3.27;2.47;;;29.00;47.40;;;;;;6156769;23;20419;-91
2021/07/30 13:11:23;;;;;;;4.43;2.93;;;29.30;47.40;;;;;;6157548;23;20394;-92
2021/07/30 13:14:25;;;;;;;3.53;3.23;;;30.10;46.10;;;;;;6180102;23;20434;-88
2021/07/30 13:16:58;;;;;;;6.43;3.70;;;30.20;46.10;;;;;;6141300;23;20407;-88
2021/07/30 13:19:26;;;;;;;3.10;2.67;;;30.30;45.20;;;;;;6164325;23;20428;-87
2021/07/30 13:21:57;;;;;;;3.00;2.80;;;30.30;45.50;;;;;;6164596;23;20407;-87
2021/07/30 13:24:27;;;;;;;4.80;3.00;;;30.30;45.20;;;;;;6139721;23;20481;-88
2021/07/30 13:27:03;;;;;;;3.00;2.57;;;30.10;45.70;;;;;;6135981;23;20405;-88
2021/07/30 13:29:35;;;;;;;3.43;2.67;;;29.90;45.80;;;;;;6139537;23;20434;-86
2021/07/30 13:32:03;;;;;;;3.87;3.03;;;30.00;46.10;;;;;;6143045;23;20428;-87
2021/07/30 13:34:31;;;;;;;2.77;2.57;;;30.00;46.30;;;;;;6152071;23;20406;-90
2021/07/30 13:37:03;;;;;;;3.30;3.00;;;30.60;45.50;;;;;;6152877;23;20391;-90
2021/07/30 13:39:33;;;;;;;3.13;2.67;;;30.50;44.50;;;;;;6139980;23;20435;-90
2021/07/30 13:42:02;;;;;;;3.07;2.83;;;30.00;45.60;;;;;;6144948;23;20426;-89
2021/07/30 13:44:33;;;;;;;2.97;2.67;;;30.30;45.00;;;;;;6140717;23;20418;-86
2021/07/30 13:47:11;;;;;;;4.37;3.47;;;30.00;45.60;;;;;;6137199;23;20402;-90
2021/07/30 13:49:55;;;;;;;3.00;2.80;;;29.80;46.20;;;;;;6162171;23;20434;-87
2021/07/30 13:52:33;;;;;;;4.30;3.13;;;29.50;46.40;;;;;;6138324;23;20411;-86
2021/07/30 13:55:18;;;;;;;4.57;4.00;;;29.00;47.50;;;;;;6117411;23;20426;-84
2021/07/30 13:57:52;;;;;;;3.83;3.10;;;28.90;48.00;;;;;;6161629;23;20425;-86
2021/07/30 14:00:23;;;;;;;5.17;3.30;;;28.70;48.30;;;;;;6138107;23;20521;-85
2021/07/30 14:03:02;;;;;;;2.97;2.77;;;28.60;48.50;;;;;;6141237;23;20409;-85
2021/07/30 14:05:36;;;;;;;3.13;2.83;;;28.60;48.60;;;;;;6171769;23;20430;-93
2021/07/30 14:08:11;;;;;;;3.00;2.80;;;28.60;48.30;;;;;;6156361;23;20398;-91
2021/07/30 14:10:39;;;;;;;2.93;2.73;;;28.40;49.10;;;;;;6179094;23;20415;-92
2021/07/30 14:13:09;;;;;;;3.37;3.17;;;28.40;49.20;;;;;;6153117;23;20410;-86
2021/07/30 14:15:46;;;;;;;4.00;2.90;;;28.30;48.90;;;;;;6168173;23;20419;-89
2021/07/30 14:18:17;;;;;;;3.23;2.93;;;28.10;49.00;;;;;;6147188;23;21165;-87
2021/07/30 14:20:48;;;;;;;3.33;3.03;;;28.00;49.40;;;;;;6146969;23;20449;-87
2021/07/30 14:23:28;;;;;;;4.80;3.30;;;28.00;49.70;;;;;;6170967;23;20409;-87
2021/07/30 14:26:00;;;;;;;3.77;3.40;;;27.80;50.50;;;;;;6149504;23;20413;-90
2021/07/30 14:28:45;;;;;;;3.10;2.90;;;27.80;50.80;;;;;;6157684;23;20470;-89
2021/07/30 14:31:19;;;;;;;4.63;3.13;;;28.00;50.10;;;;;;6180752;23;20406;-89
2021/07/30 14:33:49;;;;;;;3.07;2.77;;;28.00;49.80;;;;;;6181814;23;20424;-91
2021/07/30 14:36:20;;;;;;;3.37;3.10;;;28.10;49.70;;;;;;6157408;23;20379;-90
2021/07/30 14:39:13;;;;;;;3.63;3.33;;;27.90;49.90;;;;;;6171761;23;20410;-89
2021/07/30 14:41:57;;;;;;;3.00;2.70;;;27.70;50.40;;;;;;6150254;23;20434;-91
2021/07/30 14:44:30;;;;;;;4.30;3.50;;;27.60;50.60;;;;;;6158631;23;20406;-91
2021/07/30 14:47:26;;;;;;;4.80;2.90;;;27.70;50.50;;;;;;6182814;23;20469;-91
2021/07/30 14:50:01;;;;;;;3.20;3.00;;;27.60;51.10;;;;;;6158725;23;20458;-92
2021/07/30 14:52:39;;;;;;;3.47;3.17;;;27.70;50.50;;;;;;6157979;23;20398;-88
2021/07/30 14:55:12;;;;;;;4.37;3.50;;;27.70;50.80;;;;;;6181508;23;20415;-91
2021/07/30 14:58:01;;;;;;;4.40;3.20;;;27.50;51.20;;;;;;6182565;23;20502;-92
2021/07/30 15:05:48;;;;;;;4.93;4.43;;;27.30;51.60;;;;;;6147985;23;21075;-90
2021/07/30 15:11:19;;;;;;;4.20;3.57;;;27.10;52.00;;;;;;6136339;23;20451;-86
2021/07/30 15:13:51;;;;;;;6.80;4.20;;;27.10;52.20;;;;;;6118272;23;20969;-87
2021/07/30 15:16:38;;;;;;;3.40;3.10;;;27.00;52.00;;;;;;6123468;23;20396;-87
2021/07/30 15:19:22;;;;;;;4.20;3.90;;;27.10;52.30;;;;;;6126164;23;20434;-91
2021/07/30 15:22:04;;;;;;;4.33;3.93;;;27.00;52.70;;;;;;6126680;23;20435;-88
2021/07/30 15:24:52;;;;;;;4.67;3.53;;;26.90;53.00;;;;;;6113233;23;20447;-89
2021/07/30 15:27:43;;;;;;;3.20;3.00;;;26.80;53.20;;;;;;6127559;23;20415;-90
2021/07/30 15:30:14;;;;;;;4.70;3.33;;;27.20;52.70;;;;;;6128750;23;20450;-88
2021/07/30 15:32:56;;;;;;;8.27;3.53;;;27.00;52.90;;;;;;6152902;23;20474;-91
2021/07/30 15:35:31;;;;;;;3.67;3.37;;;26.90;53.60;;;;;;6128314;23;20392;-91
2021/07/30 15:37:58;;;;;;;3.67;3.37;;;26.90;54.00;;;;;;6126799;23;20399;-88
2021/07/30 15:40:45;;;;;;;5.13;4.63;;;26.70;54.30;;;;;;6128787;23;20463;-91
2021/07/30 15:43:15;;;;;;;6.40;3.67;;;26.70;54.90;;;;;;6128268;23;20423;-89
2021/07/30 15:45:42;;;;;;;4.00;3.53;;;27.00;54.70;;;;;;6152815;23;20384;-89
2021/07/30 15:48:14;;;;;;;4.63;3.97;;;27.10;53.90;;;;;;6127094;23;20412;-90
2021/07/30 15:50:47;;;;;;;4.40;4.10;;;27.20;54.30;;;;;;6128387;23;20423;-87
2021/07/30 15:53:17;;;;;;;4.07;3.57;;;27.00;54.70;;;;;;6126489;23;20416;-90
2021/07/30 15:55:47;;;;;;;4.80;3.33;;;27.00;55.00;;;;;;6125699;23;20411;-90
2021/07/30 15:58:14;;;;;;;4.03;3.70;;;27.00;55.70;;;;;;6125740;23;20462;-92
2021/07/30 16:00:56;;;;;;;4.33;3.70;;;27.70;54.10;;;;;;6121883;23;20444;-88
2021/07/30 16:03:30;;;;;;;3.57;3.17;;;27.80;53.10;;;;;;6115335;23;20462;-88
2021/07/30 16:06:13;;;;;;;4.10;3.70;;;27.70;53.70;;;;;;6117275;23;20411;-91
2021/07/30 16:08:51;;;;;;;4.40;3.80;;;27.50;53.90;;;;;;6120295;23;20431;-89
2021/07/30 16:11:43;;;;;;;3.87;3.47;;;27.30;54.40;;;;;;6133926;23;20427;-89
2021/07/30 16:14:18;;;;;;;3.63;3.33;;;27.20;54.20;;;;;;6139503;23;20415;-89
2021/07/30 16:16:45;;;;;;;3.40;3.10;;;27.50;54.10;;;;;;6139508;23;20407;-90
2021/07/30 16:19:23;;;;;;;5.30;3.70;;;27.60;54.20;;;;;;6139267;23;20962;-87
2021/07/30 16:22:05;;;;;;;6.57;3.50;;;27.80;53.80;;;;;;6139456;23;20440;-86
2021/07/30 16:24:40;;;;;;;3.10;2.80;;;27.50;53.90;;;;;;6139739;23;20414;-88